Marsland, Nebraska
Current Conditions -  °F | °C
As of 6:53 AM on Monday 24 Nov 2014 (Local Time) from KCDR Reporting Station
Overcast Overcast  
Wind Chill: -6°   Ceiling: 8000
Heat Index: -1°   Visibility: 10mi
Dew Point: -7°   Wind: 14mph
Humidity: 64%   Direction: 290°WNW
Pressure: 29.82"   Gusts: NA
Location:  42.44°N, 103.3°W
Report Text: KCDR 241353Z AUTO 29012KT 10SM OVC080 M01/M07 A2982 RMK AO2 SLP131 T10061067
Loading
Personal Weather Stations






























Interactive Weather Map New forecast layout! Learn more

10-Day Weather Forecast

Advertisements
Track Severe Weather on mobile